sensor_id;sensor_type;location;lat;lon;timestamp;P1;durP1;ratioP1;P2;durP2;ratioP2
45812;SDS011;31519;45.408;10.962;2022-08-02T00:01:01;4.40;;;1.42;;
45812;SDS011;31519;45.408;10.962;2022-08-02T00:03:29;5.55;;;1.70;;
45812;SDS011;31519;45.408;10.962;2022-08-02T00:05:59;6.43;;;1.70;;
45812;SDS011;31519;45.408;10.962;2022-08-02T00:08:27;7.82;;;1.67;;
45812;SDS011;31519;45.408;10.962;2022-08-02T00:10:58;6.50;;;1.40;;
45812;SDS011;31519;45.408;10.962;2022-08-02T00:13:26;3.50;;;1.73;;
45812;SDS011;31519;45.408;10.962;2022-08-02T00:15:54;8.63;;;1.58;;
45812;SDS011;31519;45.408;10.962;2022-08-02T00:18:23;13.65;;;1.55;;
45812;SDS011;31519;45.408;10.962;2022-08-02T00:20:51;3.88;;;1.42;;
45812;SDS011;31519;45.408;10.962;2022-08-02T00:23:19;7.28;;;2.33;;
45812;SDS011;31519;45.408;10.962;2022-08-02T00:25:47;7.22;;;1.77;;
45812;SDS011;31519;45.408;10.962;2022-08-02T00:28:23;3.97;;;1.60;;
45812;SDS011;31519;45.408;10.962;2022-08-02T00:33:26;1.98;;;1.35;;
45812;SDS011;31519;45.408;10.962;2022-08-02T00:36:14;6.07;;;1.42;;
45812;SDS011;31519;45.408;10.962;2022-08-02T00:38:42;4.18;;;1.50;;
45812;SDS011;31519;45.408;10.962;2022-08-02T00:41:12;6.38;;;1.40;;
45812;SDS011;31519;45.408;10.962;2022-08-02T00:43:43;5.20;;;1.40;;
45812;SDS011;31519;45.408;10.962;2022-08-02T00:46:14;5.75;;;1.20;;
45812;SDS011;31519;45.408;10.962;2022-08-02T00:48:43;6.63;;;1.77;;
45812;SDS011;31519;45.408;10.962;2022-08-02T00:51:12;6.57;;;1.50;;
45812;SDS011;31519;45.408;10.962;2022-08-02T00:53:41;3.13;;;1.17;;
45812;SDS011;31519;45.408;10.962;2022-08-02T00:56:09;4.15;;;2.00;;
45812;SDS011;31519;45.408;10.962;2022-08-02T00:58:37;8.40;;;1.65;;
45812;SDS011;31519;45.408;10.962;2022-08-02T01:01:06;3.40;;;1.40;;
45812;SDS011;31519;45.408;10.962;2022-08-02T01:03:34;7.63;;;1.40;;
45812;SDS011;31519;45.408;10.962;2022-08-02T01:06:02;7.47;;;2.25;;
45812;SDS011;31519;45.408;10.962;2022-08-02T01:08:38;4.10;;;1.40;;
45812;SDS011;31519;45.408;10.962;2022-08-02T01:11:10;1.95;;;1.23;;
45812;SDS011;31519;45.408;10.962;2022-08-02T01:13:38;5.97;;;1.30;;
45812;SDS011;31519;45.408;10.962;2022-08-02T01:16:10;2.13;;;1.20;;
45812;SDS011;31519;45.408;10.962;2022-08-02T01:18:44;5.50;;;1.50;;
45812;SDS011;31519;45.408;10.962;2022-08-02T01:28:18;5.63;;;1.38;;
45812;SDS011;31519;45.408;10.962;2022-08-02T01:30:33;5.03;;;1.25;;
45812;SDS011;31519;45.408;10.962;2022-08-02T01:33:02;2.70;;;1.40;;
45812;SDS011;31519;45.408;10.962;2022-08-02T01:35:36;3.75;;;1.30;;
45812;SDS011;31519;45.408;10.962;2022-08-02T01:38:21;5.85;;;1.23;;
45812;SDS011;31519;45.408;10.962;2022-08-02T01:40:56;4.15;;;1.25;;
45812;SDS011;31519;45.408;10.962;2022-08-02T01:43:27;9.18;;;1.27;;
45812;SDS011;31519;45.408;10.962;2022-08-02T01:45:58;4.88;;;1.10;;
45812;SDS011;31519;45.408;10.962;2022-08-02T01:48:28;3.78;;;1.02;;
45812;SDS011;31519;45.408;10.962;2022-08-02T01:50:58;3.10;;;1.13;;
45812;SDS011;31519;45.408;10.962;2022-08-02T01:53:29;1.85;;;0.93;;
45812;SDS011;31519;45.408;10.962;2022-08-02T01:55:59;2.75;;;0.90;;
45812;SDS011;31519;45.408;10.962;2022-08-02T01:58:30;5.13;;;1.35;;
45812;SDS011;31519;45.408;10.962;2022-08-02T02:01:03;2.20;;;1.17;;
45812;SDS011;31519;45.408;10.962;2022-08-02T02:03:34;2.70;;;1.00;;
45812;SDS011;31519;45.408;10.962;2022-08-02T02:06:08;5.88;;;1.23;;
45812;SDS011;31519;45.408;10.962;2022-08-02T02:08:39;9.48;;;1.00;;
45812;SDS011;31519;45.408;10.962;2022-08-02T02:11:10;8.52;;;1.27;;
45812;SDS011;31519;45.408;10.962;2022-08-02T02:13:59;2.53;;;1.30;;
45812;SDS011;31519;45.408;10.962;2022-08-02T02:16:30;3.50;;;0.90;;
45812;SDS011;31519;45.408;10.962;2022-08-02T02:19:00;4.20;;;1.05;;
45812;SDS011;31519;45.408;10.962;2022-08-02T02:21:30;5.38;;;1.02;;
45812;SDS011;31519;45.408;10.962;2022-08-02T02:24:02;8.38;;;1.10;;
45812;SDS011;31519;45.408;10.962;2022-08-02T02:26:38;11.25;;;1.02;;
45812;SDS011;31519;45.408;10.962;2022-08-02T02:29:19;4.07;;;1.10;;
45812;SDS011;31519;45.408;10.962;2022-08-02T02:31:51;3.80;;;1.33;;
45812;SDS011;31519;45.408;10.962;2022-08-02T02:34:27;3.28;;;1.30;;
45812;SDS011;31519;45.408;10.962;2022-08-02T02:37:00;6.75;;;1.13;;
45812;SDS011;31519;45.408;10.962;2022-08-02T02:42:00;4.07;;;1.50;;
45812;SDS011;31519;45.408;10.962;2022-08-02T02:44:30;7.05;;;1.08;;
45812;SDS011;31519;45.408;10.962;2022-08-02T02:47:02;2.90;;;1.20;;
45812;SDS011;31519;45.408;10.962;2022-08-02T02:49:32;5.28;;;1.58;;
45812;SDS011;31519;45.408;10.962;2022-08-02T02:52:02;3.97;;;2.00;;
45812;SDS011;31519;45.408;10.962;2022-08-02T02:54:32;6.07;;;1.38;;
45812;SDS011;31519;45.408;10.962;2022-08-02T02:57:03;5.45;;;1.13;;
45812;SDS011;31519;45.408;10.962;2022-08-02T02:59:33;9.52;;;1.33;;
45812;SDS011;31519;45.408;10.962;2022-08-02T03:02:16;1.90;;;1.17;;
45812;SDS011;31519;45.408;10.962;2022-08-02T03:04:45;8.77;;;1.48;;
45812;SDS011;31519;45.408;10.962;2022-08-02T03:07:24;1.88;;;1.20;;
45812;SDS011;31519;45.408;10.962;2022-08-02T03:09:53;2.65;;;1.40;;
45812;SDS011;31519;45.408;10.962;2022-08-02T03:12:22;2.67;;;1.00;;
45812;SDS011;31519;45.408;10.962;2022-08-02T03:15:03;6.25;;;1.40;;
45812;SDS011;31519;45.408;10.962;2022-08-02T03:17:38;8.38;;;1.45;;
45812;SDS011;31519;45.408;10.962;2022-08-02T03:20:09;5.65;;;1.30;;
45812;SDS011;31519;45.408;10.962;2022-08-02T03:22:43;2.30;;;1.13;;
45812;SDS011;31519;45.408;10.962;2022-08-02T03:25:13;8.52;;;1.27;;
45812;SDS011;31519;45.408;10.962;2022-08-02T03:27:42;7.97;;;1.50;;
45812;SDS011;31519;45.408;10.962;2022-08-02T03:30:11;5.25;;;1.10;;
45812;SDS011;31519;45.408;10.962;2022-08-02T03:32:42;3.13;;;1.10;;
45812;SDS011;31519;45.408;10.962;2022-08-02T03:35:13;9.45;;;1.10;;
45812;SDS011;31519;45.408;10.962;2022-08-02T03:37:51;4.15;;;1.45;;
45812;SDS011;31519;45.408;10.962;2022-08-02T03:40:23;4.18;;;1.10;;
45812;SDS011;31519;45.408;10.962;2022-08-02T03:42:54;5.38;;;1.00;;
45812;SDS011;31519;45.408;10.962;2022-08-02T03:45:23;0.95;;;0.90;;
45812;SDS011;31519;45.408;10.962;2022-08-02T03:47:54;1.55;;;1.10;;
45812;SDS011;31519;45.408;10.962;2022-08-02T03:50:25;5.65;;;1.17;;
45812;SDS011;31519;45.408;10.962;2022-08-02T03:52:54;3.30;;;1.00;;
45812;SDS011;31519;45.408;10.962;2022-08-02T03:55:23;8.70;;;1.63;;
45812;SDS011;31519;45.408;10.962;2022-08-02T03:57:52;2.28;;;1.05;;
45812;SDS011;31519;45.408;10.962;2022-08-02T04:00:21;4.05;;;2.80;;
45812;SDS011;31519;45.408;10.962;2022-08-02T04:02:49;6.68;;;0.93;;
45812;SDS011;31519;45.408;10.962;2022-08-02T04:05:18;6.28;;;2.08;;
45812;SDS011;31519;45.408;10.962;2022-08-02T04:07:47;14.82;;;1.45;;
45812;SDS011;31519;45.408;10.962;2022-08-02T04:10:36;7.32;;;1.10;;
45812;SDS011;31519;45.408;10.962;2022-08-02T04:13:28;12.63;;;1.08;;
45812;SDS011;31519;45.408;10.962;2022-08-02T04:16:06;3.83;;;1.05;;
45812;SDS011;31519;45.408;10.962;2022-08-02T04:18:40;6.10;;;1.20;;
45812;SDS011;31519;45.408;10.962;2022-08-02T04:21:14;4.60;;;0.80;;
45812;SDS011;31519;45.408;10.962;2022-08-02T04:23:44;7.88;;;0.98;;
45812;SDS011;31519;45.408;10.962;2022-08-02T04:26:16;3.55;;;0.90;;
45812;SDS011;31519;45.408;10.962;2022-08-02T04:28:53;1.15;;;1.05;;
45812;SDS011;31519;45.408;10.962;2022-08-02T04:31:23;4.60;;;0.90;;
45812;SDS011;31519;45.408;10.962;2022-08-02T04:33:53;4.82;;;1.13;;
45812;SDS011;31519;45.408;10.962;2022-08-02T04:36:21;2.63;;;0.98;;
45812;SDS011;31519;45.408;10.962;2022-08-02T04:38:58;4.07;;;0.80;;
45812;SDS011;31519;45.408;10.962;2022-08-02T04:41:39;7.57;;;1.13;;
45812;SDS011;31519;45.408;10.962;2022-08-02T04:44:11;3.83;;;0.80;;
45812;SDS011;31519;45.408;10.962;2022-08-02T04:46:40;3.22;;;0.90;;
45812;SDS011;31519;45.408;10.962;2022-08-02T04:49:09;4.28;;;0.85;;
45812;SDS011;31519;45.408;10.962;2022-08-02T04:51:39;3.70;;;0.80;;
45812;SDS011;31519;45.408;10.962;2022-08-02T04:54:09;2.97;;;0.73;;
45812;SDS011;31519;45.408;10.962;2022-08-02T04:56:38;6.20;;;0.90;;
45812;SDS011;31519;45.408;10.962;2022-08-02T04:59:07;3.95;;;1.00;;
45812;SDS011;31519;45.408;10.962;2022-08-02T05:01:35;7.15;;;0.93;;
45812;SDS011;31519;45.408;10.962;2022-08-02T05:04:03;1.23;;;0.85;;
45812;SDS011;31519;45.408;10.962;2022-08-02T05:06:32;4.85;;;0.63;;
45812;SDS011;31519;45.408;10.962;2022-08-02T05:09:00;5.95;;;0.75;;
45812;SDS011;31519;45.408;10.962;2022-08-02T05:11:29;3.88;;;0.95;;
45812;SDS011;31519;45.408;10.962;2022-08-02T05:14:04;1.42;;;0.85;;
45812;SDS011;31519;45.408;10.962;2022-08-02T05:16:32;12.10;;;1.20;;
45812;SDS011;31519;45.408;10.962;2022-08-02T05:19:01;14.77;;;1.20;;
45812;SDS011;31519;45.408;10.962;2022-08-02T05:21:29;1.77;;;0.85;;
45812;SDS011;31519;45.408;10.962;2022-08-02T05:23:58;9.00;;;1.20;;
45812;SDS011;31519;45.408;10.962;2022-08-02T05:26:26;4.10;;;1.08;;
45812;SDS011;31519;45.408;10.962;2022-08-02T05:28:55;6.97;;;1.13;;
45812;SDS011;31519;45.408;10.962;2022-08-02T05:31:23;5.95;;;1.00;;
45812;SDS011;31519;45.408;10.962;2022-08-02T05:33:51;5.75;;;1.45;;
45812;SDS011;31519;45.408;10.962;2022-08-02T05:36:19;7.28;;;0.98;;
45812;SDS011;31519;45.408;10.962;2022-08-02T05:38:48;4.68;;;0.98;;
45812;SDS011;31519;45.408;10.962;2022-08-02T05:41:31;4.22;;;1.52;;
45812;SDS011;31519;45.408;10.962;2022-08-02T05:44:00;7.90;;;1.38;;
45812;SDS011;31519;45.408;10.962;2022-08-02T05:46:29;9.52;;;1.00;;
45812;SDS011;31519;45.408;10.962;2022-08-02T05:48:57;9.88;;;1.10;;
45812;SDS011;31519;45.408;10.962;2022-08-02T05:51:33;5.63;;;1.27;;
45812;SDS011;31519;45.408;10.962;2022-08-02T05:56:35;5.05;;;1.35;;
45812;SDS011;31519;45.408;10.962;2022-08-02T06:02:03;4.95;;;1.08;;
45812;SDS011;31519;45.408;10.962;2022-08-02T06:05:22;10.48;;;1.92;;
45812;SDS011;31519;45.408;10.962;2022-08-02T06:07:33;10.05;;;1.60;;
45812;SDS011;31519;45.408;10.962;2022-08-02T06:10:04;8.93;;;1.27;;
45812;SDS011;31519;45.408;10.962;2022-08-02T06:12:40;6.32;;;1.30;;
45812;SDS011;31519;45.408;10.962;2022-08-02T06:15:17;6.88;;;1.67;;
45812;SDS011;31519;45.408;10.962;2022-08-02T06:17:46;13.20;;;1.55;;
45812;SDS011;31519;45.408;10.962;2022-08-02T06:20:17;4.80;;;1.30;;
45812;SDS011;31519;45.408;10.962;2022-08-02T06:22:47;6.03;;;1.38;;
45812;SDS011;31519;45.408;10.962;2022-08-02T06:25:17;8.15;;;1.35;;
45812;SDS011;31519;45.408;10.962;2022-08-02T06:28:06;6.43;;;2.00;;
45812;SDS011;31519;45.408;10.962;2022-08-02T06:30:38;7.32;;;1.33;;
45812;SDS011;31519;45.408;10.962;2022-08-02T06:33:07;8.55;;;1.45;;
45812;SDS011;31519;45.408;10.962;2022-08-02T06:35:52;4.53;;;0.98;;
45812;SDS011;31519;45.408;10.962;2022-08-02T06:38:33;9.10;;;1.30;;
45812;SDS011;31519;45.408;10.962;2022-08-02T06:41:16;8.50;;;1.38;;
45812;SDS011;31519;45.408;10.962;2022-08-02T06:44:01;8.75;;;1.35;;
45812;SDS011;31519;45.408;10.962;2022-08-02T06:46:50;3.45;;;1.38;;
45812;SDS011;31519;45.408;10.962;2022-08-02T06:49:39;5.00;;;1.90;;
45812;SDS011;31519;45.408;10.962;2022-08-02T06:52:21;6.68;;;1.90;;
45812;SDS011;31519;45.408;10.962;2022-08-02T06:54:58;15.32;;;1.65;;
45812;SDS011;31519;45.408;10.962;2022-08-02T06:57:28;8.82;;;1.60;;
45812;SDS011;31519;45.408;10.962;2022-08-02T06:59:57;10.30;;;1.60;;
45812;SDS011;31519;45.408;10.962;2022-08-02T07:02:31;7.72;;;1.75;;
45812;SDS011;31519;45.408;10.962;2022-08-02T07:05:03;9.25;;;2.08;;
45812;SDS011;31519;45.408;10.962;2022-08-02T07:07:31;12.82;;;2.03;;
45812;SDS011;31519;45.408;10.962;2022-08-02T07:10:00;6.90;;;2.10;;
45812;SDS011;31519;45.408;10.962;2022-08-02T07:12:29;10.18;;;1.67;;
45812;SDS011;31519;45.408;10.962;2022-08-02T07:15:00;10.20;;;1.75;;
45812;SDS011;31519;45.408;10.962;2022-08-02T07:17:30;13.25;;;1.30;;
45812;SDS011;31519;45.408;10.962;2022-08-02T07:19:59;7.68;;;0.98;;
45812;SDS011;31519;45.408;10.962;2022-08-02T07:22:27;1.67;;;0.82;;
45812;SDS011;31519;45.408;10.962;2022-08-02T07:24:57;2.25;;;0.93;;
45812;SDS011;31519;45.408;10.962;2022-08-02T07:27:27;5.80;;;1.38;;
45812;SDS011;31519;45.408;10.962;2022-08-02T07:29:55;5.20;;;1.85;;
45812;SDS011;31519;45.408;10.962;2022-08-02T07:32:27;5.20;;;1.40;;
45812;SDS011;31519;45.408;10.962;2022-08-02T07:34:57;6.30;;;1.27;;
45812;SDS011;31519;45.408;10.962;2022-08-02T07:37:34;5.93;;;1.30;;
45812;SDS011;31519;45.408;10.962;2022-08-02T07:40:24;5.95;;;1.75;;
45812;SDS011;31519;45.408;10.962;2022-08-02T07:42:54;8.45;;;1.20;;
45812;SDS011;31519;45.408;10.962;2022-08-02T07:45:30;1.95;;;1.10;;
45812;SDS011;31519;45.408;10.962;2022-08-02T07:48:02;5.90;;;1.93;;
45812;SDS011;31519;45.408;10.962;2022-08-02T07:50:30;15.02;;;2.83;;
45812;SDS011;31519;45.408;10.962;2022-08-02T07:53:00;11.60;;;2.10;;
45812;SDS011;31519;45.408;10.962;2022-08-02T07:55:29;9.00;;;2.00;;
45812;SDS011;31519;45.408;10.962;2022-08-02T07:58:09;7.22;;;2.10;;
45812;SDS011;31519;45.408;10.962;2022-08-02T08:00:42;12.63;;;2.22;;
45812;SDS011;31519;45.408;10.962;2022-08-02T08:03:10;8.60;;;1.90;;
45812;SDS011;31519;45.408;10.962;2022-08-02T08:05:39;1.75;;;1.40;;
45812;SDS011;31519;45.408;10.962;2022-08-02T08:08:08;5.32;;;1.45;;
45812;SDS011;31519;45.408;10.962;2022-08-02T08:10:44;7.38;;;2.00;;
45812;SDS011;31519;45.408;10.962;2022-08-02T08:13:13;5.60;;;1.50;;
45812;SDS011;31519;45.408;10.962;2022-08-02T08:15:42;8.18;;;1.90;;
45812;SDS011;31519;45.408;10.962;2022-08-02T08:18:20;8.85;;;1.80;;
45812;SDS011;31519;45.408;10.962;2022-08-02T08:20:49;8.00;;;1.60;;
45812;SDS011;31519;45.408;10.962;2022-08-02T08:23:18;5.10;;;1.70;;
45812;SDS011;31519;45.408;10.962;2022-08-02T08:25:47;3.05;;;1.17;;
45812;SDS011;31519;45.408;10.962;2022-08-02T08:28:15;3.75;;;1.38;;
45812;SDS011;31519;45.408;10.962;2022-08-02T08:30:43;5.90;;;1.20;;
45812;SDS011;31519;45.408;10.962;2022-08-02T08:33:11;2.88;;;1.20;;
45812;SDS011;31519;45.408;10.962;2022-08-02T08:35:40;3.22;;;1.10;;
45812;SDS011;31519;45.408;10.962;2022-08-02T08:38:08;2.58;;;1.30;;
45812;SDS011;31519;45.408;10.962;2022-08-02T08:40:37;2.70;;;1.00;;
45812;SDS011;31519;45.408;10.962;2022-08-02T08:43:05;3.40;;;1.30;;
45812;SDS011;31519;45.408;10.962;2022-08-02T08:45:33;2.05;;;1.40;;
45812;SDS011;31519;45.408;10.962;2022-08-02T08:48:05;7.25;;;1.60;;
45812;SDS011;31519;45.408;10.962;2022-08-02T08:53:20;5.03;;;2.08;;
45812;SDS011;31519;45.408;10.962;2022-08-02T08:56:03;8.73;;;1.77;;
45812;SDS011;31519;45.408;10.962;2022-08-02T08:58:32;3.78;;;1.40;;
45812;SDS011;31519;45.408;10.962;2022-08-02T09:01:00;3.67;;;1.73;;
45812;SDS011;31519;45.408;10.962;2022-08-02T09:03:29;4.57;;;1.55;;
45812;SDS011;31519;45.408;10.962;2022-08-02T09:06:01;11.02;;;1.95;;
45812;SDS011;31519;45.408;10.962;2022-08-02T09:08:31;6.85;;;1.63;;
45812;SDS011;31519;45.408;10.962;2022-08-02T09:11:00;12.05;;;2.10;;
45812;SDS011;31519;45.408;10.962;2022-08-02T09:13:28;7.18;;;1.90;;
45812;SDS011;31519;45.408;10.962;2022-08-02T09:16:11;15.20;;;1.98;;
45812;SDS011;31519;45.408;10.962;2022-08-02T09:18:42;11.35;;;2.17;;
45812;SDS011;31519;45.408;10.962;2022-08-02T09:21:14;6.13;;;2.00;;
45812;SDS011;31519;45.408;10.962;2022-08-02T09:23:48;2.67;;;1.38;;
45812;SDS011;31519;45.408;10.962;2022-08-02T09:26:18;6.43;;;1.42;;
45812;SDS011;31519;45.408;10.962;2022-08-02T09:28:50;11.25;;;2.00;;
45812;SDS011;31519;45.408;10.962;2022-08-02T09:31:20;7.32;;;1.83;;
45812;SDS011;31519;45.408;10.962;2022-08-02T09:33:56;11.52;;;1.63;;
45812;SDS011;31519;45.408;10.962;2022-08-02T09:36:29;2.28;;;1.50;;
45812;SDS011;31519;45.408;10.962;2022-08-02T09:39:15;10.43;;;1.70;;
45812;SDS011;31519;45.408;10.962;2022-08-02T09:41:44;2.97;;;1.52;;
45812;SDS011;31519;45.408;10.962;2022-08-02T09:44:13;7.40;;;1.27;;
45812;SDS011;31519;45.408;10.962;2022-08-02T09:46:43;7.43;;;1.50;;
45812;SDS011;31519;45.408;10.962;2022-08-02T09:49:14;10.75;;;1.55;;
45812;SDS011;31519;45.408;10.962;2022-08-02T09:56:47;8.18;;;1.48;;
45812;SDS011;31519;45.408;10.962;2022-08-02T09:59:17;3.92;;;1.48;;
45812;SDS011;31519;45.408;10.962;2022-08-02T10:01:48;8.68;;;1.65;;
45812;SDS011;31519;45.408;10.962;2022-08-02T10:04:25;5.35;;;1.48;;
45812;SDS011;31519;45.408;10.962;2022-08-02T10:07:02;2.58;;;1.58;;
45812;SDS011;31519;45.408;10.962;2022-08-02T10:09:31;6.45;;;1.17;;
45812;SDS011;31519;45.408;10.962;2022-08-02T10:12:01;4.55;;;1.20;;
45812;SDS011;31519;45.408;10.962;2022-08-02T10:14:32;9.57;;;1.52;;
45812;SDS011;31519;45.408;10.962;2022-08-02T10:17:02;6.93;;;1.83;;
45812;SDS011;31519;45.408;10.962;2022-08-02T10:19:32;1.70;;;1.27;;
45812;SDS011;31519;45.408;10.962;2022-08-02T10:22:21;8.38;;;1.35;;
45812;SDS011;31519;45.408;10.962;2022-08-02T10:24:51;5.20;;;1.67;;
45812;SDS011;31519;45.408;10.962;2022-08-02T10:27:20;10.57;;;1.40;;
45812;SDS011;31519;45.408;10.962;2022-08-02T10:29:52;10.18;;;1.63;;
45812;SDS011;31519;45.408;10.962;2022-08-02T10:32:36;8.70;;;1.50;;
45812;SDS011;31519;45.408;10.962;2022-08-02T10:35:12;4.85;;;1.30;;
45812;SDS011;31519;45.408;10.962;2022-08-02T10:37:53;4.47;;;1.05;;
45812;SDS011;31519;45.408;10.962;2022-08-02T10:40:33;2.85;;;1.30;;
45812;SDS011;31519;45.408;10.962;2022-08-02T10:43:39;6.85;;;1.40;;
45812;SDS011;31519;45.408;10.962;2022-08-02T10:49:11;5.65;;;1.15;;
45812;SDS011;31519;45.408;10.962;2022-08-02T10:59:48;4.63;;;1.30;;
45812;SDS011;31519;45.408;10.962;2022-08-02T11:05:27;6.80;;;1.67;;
45812;SDS011;31519;45.408;10.962;2022-08-02T11:08:16;4.07;;;1.33;;
45812;SDS011;31519;45.408;10.962;2022-08-02T11:10:46;8.55;;;1.63;;
45812;SDS011;31519;45.408;10.962;2022-08-02T11:13:16;8.50;;;1.60;;
45812;SDS011;31519;45.408;10.962;2022-08-02T11:15:50;8.65;;;1.60;;
45812;SDS011;31519;45.408;10.962;2022-08-02T11:19:00;4.60;;;1.60;;
45812;SDS011;31519;45.408;10.962;2022-08-02T11:21:25;5.60;;;1.20;;
45812;SDS011;31519;45.408;10.962;2022-08-02T11:23:56;2.90;;;1.58;;
45812;SDS011;31519;45.408;10.962;2022-08-02T11:26:56;7.72;;;1.55;;
45812;SDS011;31519;45.408;10.962;2022-08-02T11:29:35;6.18;;;1.67;;
45812;SDS011;31519;45.408;10.962;2022-08-02T11:32:15;21.42;;;1.60;;
45812;SDS011;31519;45.408;10.962;2022-08-02T11:34:58;3.28;;;1.25;;
45812;SDS011;31519;45.408;10.962;2022-08-02T11:37:34;2.78;;;1.38;;
45812;SDS011;31519;45.408;10.962;2022-08-02T11:40:08;3.05;;;1.10;;
45812;SDS011;31519;45.408;10.962;2022-08-02T11:42:47;4.68;;;0.90;;
45812;SDS011;31519;45.408;10.962;2022-08-02T11:45:23;4.00;;;1.50;;
45812;SDS011;31519;45.408;10.962;2022-08-02T11:47:56;5.88;;;0.93;;
45812;SDS011;31519;45.408;10.962;2022-08-02T11:50:25;3.60;;;1.05;;
45812;SDS011;31519;45.408;10.962;2022-08-02T11:52:57;7.65;;;1.20;;
45812;SDS011;31519;45.408;10.962;2022-08-02T11:55:26;6.97;;;1.55;;
45812;SDS011;31519;45.408;10.962;2022-08-02T11:57:59;3.83;;;1.33;;
45812;SDS011;31519;45.408;10.962;2022-08-02T12:00:32;2.30;;;0.98;;
45812;SDS011;31519;45.408;10.962;2022-08-02T12:03:01;5.95;;;1.85;;
45812;SDS011;31519;45.408;10.962;2022-08-02T12:05:29;9.63;;;1.88;;
45812;SDS011;31519;45.408;10.962;2022-08-02T12:08:19;7.18;;;1.55;;
45812;SDS011;31519;45.408;10.962;2022-08-02T12:10:51;13.10;;;1.85;;
45812;SDS011;31519;45.408;10.962;2022-08-02T12:13:21;4.57;;;1.02;;
45812;SDS011;31519;45.408;10.962;2022-08-02T12:15:50;8.13;;;1.20;;
45812;SDS011;31519;45.408;10.962;2022-08-02T12:18:19;5.20;;;1.35;;
45812;SDS011;31519;45.408;10.962;2022-08-02T12:21:22;5.80;;;1.00;;
45812;SDS011;31519;45.408;10.962;2022-08-02T12:23:52;9.85;;;1.20;;
45812;SDS011;31519;45.408;10.962;2022-08-02T12:26:28;5.15;;;1.30;;
45812;SDS011;31519;45.408;10.962;2022-08-02T12:28:57;4.50;;;1.40;;
45812;SDS011;31519;45.408;10.962;2022-08-02T12:31:42;2.17;;;1.10;;
45812;SDS011;31519;45.408;10.962;2022-08-02T12:34:26;3.15;;;1.35;;
45812;SDS011;31519;45.408;10.962;2022-08-02T12:36:59;6.00;;;1.05;;
45812;SDS011;31519;45.408;10.962;2022-08-02T12:39:38;6.03;;;1.98;;
45812;SDS011;31519;45.408;10.962;2022-08-02T12:42:12;1.70;;;1.00;;
45812;SDS011;31519;45.408;10.962;2022-08-02T12:44:52;14.02;;;1.10;;
45812;SDS011;31519;45.408;10.962;2022-08-02T12:47:22;3.85;;;0.90;;
45812;SDS011;31519;45.408;10.962;2022-08-02T12:50:16;5.38;;;1.10;;
45812;SDS011;31519;45.408;10.962;2022-08-02T12:52:47;1.20;;;0.75;;
45812;SDS011;31519;45.408;10.962;2022-08-02T12:55:21;6.28;;;1.10;;
45812;SDS011;31519;45.408;10.962;2022-08-02T12:58:12;7.38;;;0.93;;
45812;SDS011;31519;45.408;10.962;2022-08-02T13:00:41;3.13;;;0.90;;
45812;SDS011;31519;45.408;10.962;2022-08-02T13:03:10;3.33;;;0.82;;
45812;SDS011;31519;45.408;10.962;2022-08-02T13:05:59;2.70;;;0.70;;
45812;SDS011;31519;45.408;10.962;2022-08-02T13:08:48;5.20;;;0.77;;
45812;SDS011;31519;45.408;10.962;2022-08-02T13:11:18;2.60;;;0.70;;
45812;SDS011;31519;45.408;10.962;2022-08-02T13:13:47;0.77;;;0.60;;
45812;SDS011;31519;45.408;10.962;2022-08-02T13:16:16;1.13;;;1.02;;
45812;SDS011;31519;45.408;10.962;2022-08-02T13:18:57;0.60;;;0.60;;
45812;SDS011;31519;45.408;10.962;2022-08-02T13:21:26;1.00;;;0.43;;
45812;SDS011;31519;45.408;10.962;2022-08-02T13:24:15;1.48;;;0.60;;
45812;SDS011;31519;45.408;10.962;2022-08-02T13:27:03;6.75;;;0.63;;
45812;SDS011;31519;45.408;10.962;2022-08-02T13:29:35;3.73;;;0.90;;
45812;SDS011;31519;45.408;10.962;2022-08-02T13:32:04;4.75;;;0.90;;
45812;SDS011;31519;45.408;10.962;2022-08-02T13:34:33;3.05;;;1.08;;
45812;SDS011;31519;45.408;10.962;2022-08-02T13:37:02;0.70;;;0.70;;
45812;SDS011;31519;45.408;10.962;2022-08-02T13:39:31;5.57;;;1.52;;
45812;SDS011;31519;45.408;10.962;2022-08-02T13:41:59;2.88;;;0.75;;
45812;SDS011;31519;45.408;10.962;2022-08-02T13:44:27;1.05;;;0.70;;
45812;SDS011;31519;45.408;10.962;2022-08-02T13:46:56;3.60;;;0.90;;
45812;SDS011;31519;45.408;10.962;2022-08-02T13:49:24;5.35;;;0.80;;
45812;SDS011;31519;45.408;10.962;2022-08-02T13:52:13;5.10;;;0.82;;
45812;SDS011;31519;45.408;10.962;2022-08-02T13:54:42;7.43;;;1.08;;
45812;SDS011;31519;45.408;10.962;2022-08-02T13:57:10;2.28;;;1.05;;
45812;SDS011;31519;45.408;10.962;2022-08-02T13:59:38;2.47;;;1.05;;
45812;SDS011;31519;45.408;10.962;2022-08-02T14:02:27;1.67;;;1.02;;
45812;SDS011;31519;45.408;10.962;2022-08-02T14:04:56;5.15;;;0.93;;
45812;SDS011;31519;45.408;10.962;2022-08-02T14:07:24;1.35;;;0.68;;
45812;SDS011;31519;45.408;10.962;2022-08-02T14:09:52;7.22;;;1.00;;
45812;SDS011;31519;45.408;10.962;2022-08-02T14:12:20;0.73;;;0.73;;
45812;SDS011;31519;45.408;10.962;2022-08-02T14:14:49;5.78;;;0.80;;
45812;SDS011;31519;45.408;10.962;2022-08-02T14:17:17;4.82;;;0.70;;
45812;SDS011;31519;45.408;10.962;2022-08-02T14:19:45;0.73;;;0.70;;
45812;SDS011;31519;45.408;10.962;2022-08-02T14:22:14;3.13;;;0.68;;
45812;SDS011;31519;45.408;10.962;2022-08-02T14:24:42;0.85;;;0.60;;
45812;SDS011;31519;45.408;10.962;2022-08-02T14:27:10;1.25;;;0.68;;
45812;SDS011;31519;45.408;10.962;2022-08-02T14:29:39;0.95;;;0.80;;
45812;SDS011;31519;45.408;10.962;2022-08-02T14:32:07;2.97;;;0.80;;
45812;SDS011;31519;45.408;10.962;2022-08-02T14:34:36;1.80;;;0.68;;
45812;SDS011;31519;45.408;10.962;2022-08-02T14:37:04;0.98;;;0.70;;
45812;SDS011;31519;45.408;10.962;2022-08-02T14:39:32;2.00;;;0.73;;
45812;SDS011;31519;45.408;10.962;2022-08-02T14:42:21;0.70;;;0.65;;
45812;SDS011;31519;45.408;10.962;2022-08-02T14:44:49;6.22;;;1.00;;
45812;SDS011;31519;45.408;10.962;2022-08-02T14:47:18;3.85;;;0.75;;
45812;SDS011;31519;45.408;10.962;2022-08-02T14:49:46;5.38;;;0.90;;
45812;SDS011;31519;45.408;10.962;2022-08-02T14:52:17;1.85;;;0.77;;
45812;SDS011;31519;45.408;10.962;2022-08-02T14:54:46;1.73;;;0.75;;
45812;SDS011;31519;45.408;10.962;2022-08-02T14:57:14;2.70;;;0.57;;
45812;SDS011;31519;45.408;10.962;2022-08-02T14:59:42;2.83;;;0.77;;
45812;SDS011;31519;45.408;10.962;2022-08-02T15:02:11;3.63;;;1.42;;
45812;SDS011;31519;45.408;10.962;2022-08-02T15:04:41;1.10;;;0.88;;
45812;SDS011;31519;45.408;10.962;2022-08-02T15:07:10;1.27;;;0.90;;
45812;SDS011;31519;45.408;10.962;2022-08-02T15:09:40;4.85;;;0.90;;
45812;SDS011;31519;45.408;10.962;2022-08-02T15:12:09;2.53;;;1.00;;
45812;SDS011;31519;45.408;10.962;2022-08-02T15:14:39;3.97;;;0.80;;
45812;SDS011;31519;45.408;10.962;2022-08-02T15:17:07;2.50;;;1.08;;
45812;SDS011;31519;45.408;10.962;2022-08-02T15:19:36;1.33;;;0.80;;
45812;SDS011;31519;45.408;10.962;2022-08-02T15:22:25;7.53;;;1.10;;
45812;SDS011;31519;45.408;10.962;2022-08-02T15:24:55;1.08;;;0.73;;
45812;SDS011;31519;45.408;10.962;2022-08-02T15:27:24;1.05;;;0.82;;
45812;SDS011;31519;45.408;10.962;2022-08-02T15:29:52;3.60;;;0.90;;
45812;SDS011;31519;45.408;10.962;2022-08-02T15:32:27;1.80;;;1.10;;
45812;SDS011;31519;45.408;10.962;2022-08-02T15:34:55;1.27;;;0.75;;
45812;SDS011;31519;45.408;10.962;2022-08-02T15:37:24;7.05;;;0.90;;
45812;SDS011;31519;45.408;10.962;2022-08-02T15:39:58;5.63;;;0.95;;
45812;SDS011;31519;45.408;10.962;2022-08-02T15:42:27;3.58;;;0.80;;
45812;SDS011;31519;45.408;10.962;2022-08-02T15:44:57;0.68;;;0.68;;